sensor_id;sensor_type;location;lat;lon;timestamp;pressure;altitude;pressure_sealevel;temperature;humidity
61506;BME280;47366;51.916;4.574;2023-11-21T00:00:08;101235.50;;;7.44;100.00
61506;BME280;47366;51.916;4.574;2023-11-21T00:02:37;101223.09;;;7.40;100.00
61506;BME280;47366;51.916;4.574;2023-11-21T00:05:06;101224.97;;;7.38;100.00
61506;BME280;47366;51.916;4.574;2023-11-21T00:07:33;101225.97;;;7.35;100.00
61506;BME280;47366;51.916;4.574;2023-11-21T00:09:58;101225.00;;;7.36;100.00
61506;BME280;47366;51.916;4.574;2023-11-21T00:12:24;101238.44;;;7.38;100.00
61506;BME280;47366;51.916;4.574;2023-11-21T00:14:50;101230.50;;;7.35;100.00
61506;BME280;47366;51.916;4.574;2023-11-21T00:17:15;101226.97;;;7.33;100.00
61506;BME280;47366;51.916;4.574;2023-11-21T00:19:40;101239.38;;;7.37;100.00
61506;BME280;47366;51.916;4.574;2023-11-21T00:22:08;101238.38;;;7.39;100.00
61506;BME280;47366;51.916;4.574;2023-11-21T00:24:34;101240.88;;;7.44;100.00
61506;BME280;47366;51.916;4.574;2023-11-21T00:26:59;101240.78;;;7.45;100.00
61506;BME280;47366;51.916;4.574;2023-11-21T00:29:25;101230.09;;;7.44;100.00
61506;BME280;47366;51.916;4.574;2023-11-21T00:31:51;101236.22;;;7.48;100.00
61506;BME280;47366;51.916;4.574;2023-11-21T00:34:16;101233.47;;;7.49;100.00
61506;BME280;47366;51.916;4.574;2023-11-21T00:36:42;101234.28;;;7.51;100.00
61506;BME280;47366;51.916;4.574;2023-11-21T00:39:07;101243.09;;;7.55;100.00
61506;BME280;47366;51.916;4.574;2023-11-21T00:41:33;101246.56;;;7.58;100.00
61506;BME280;47366;51.916;4.574;2023-11-21T00:43:58;101241.03;;;7.61;100.00
61506;BME280;47366;51.916;4.574;2023-11-21T00:46:24;101248.94;;;7.66;100.00
61506;BME280;47366;51.916;4.574;2023-11-21T00:48:52;101246.19;;;7.68;100.00
61506;BME280;47366;51.916;4.574;2023-11-21T00:51:19;101252.25;;;7.73;100.00
61506;BME280;47366;51.916;4.574;2023-11-21T00:53:44;101249.53;;;7.73;100.00
61506;BME280;47366;51.916;4.574;2023-11-21T00:56:11;101253.94;;;7.75;100.00
61506;BME280;47366;51.916;4.574;2023-11-21T00:58:37;101239.69;;;7.72;100.00
61506;BME280;47366;51.916;4.574;2023-11-21T01:01:02;101248.44;;;7.77;100.00
61506;BME280;47366;51.916;4.574;2023-11-21T01:03:28;101254.47;;;7.83;100.00
61506;BME280;47366;51.916;4.574;2023-11-21T01:05:54;101259.03;;;7.81;100.00
61506;BME280;47366;51.916;4.574;2023-11-21T01:08:19;101250.00;;;7.82;100.00
61506;BME280;47366;51.916;4.574;2023-11-21T01:10:45;101256.03;;;7.89;100.00
61506;BME280;47366;51.916;4.574;2023-11-21T01:13:10;101264.91;;;7.91;100.00
61506;BME280;47366;51.916;4.574;2023-11-21T01:15:36;101258.63;;;7.91;100.00
61506;BME280;47366;51.916;4.574;2023-11-21T01:18:01;101265.72;;;7.93;100.00
61506;BME280;47366;51.916;4.574;2023-11-21T01:20:26;101266.63;;;7.94;100.00
61506;BME280;47366;51.916;4.574;2023-11-21T01:22:52;101280.81;;;7.97;100.00
61506;BME280;47366;51.916;4.574;2023-11-21T01:25:19;101288.78;;;8.00;100.00
61506;BME280;47366;51.916;4.574;2023-11-21T01:27:44;101269.09;;;7.98;100.00
61506;BME280;47366;51.916;4.574;2023-11-21T01:30:10;101279.00;;;7.98;100.00
61506;BME280;47366;51.916;4.574;2023-11-21T01:32:36;101289.44;;;8.05;100.00
61506;BME280;47366;51.916;4.574;2023-11-21T01:35:02;101285.81;;;8.06;100.00
61506;BME280;47366;51.916;4.574;2023-11-21T01:37:28;101288.53;;;8.06;100.00
61506;BME280;47366;51.916;4.574;2023-11-21T01:39:54;101285.88;;;8.05;100.00
61506;BME280;47366;51.916;4.574;2023-11-21T01:42:22;101291.06;;;8.09;100.00
61506;BME280;47366;51.916;4.574;2023-11-21T01:44:48;101290.25;;;8.07;100.00
61506;BME280;47366;51.916;4.574;2023-11-21T01:47:14;101299.97;;;8.12;100.00
61506;BME280;47366;51.916;4.574;2023-11-21T01:49:43;101302.44;;;8.18;100.00
61506;BME280;47366;51.916;4.574;2023-11-21T01:52:09;101302.53;;;8.15;100.00
61506;BME280;47366;51.916;4.574;2023-11-21T01:54:36;101308.59;;;8.20;100.00
61506;BME280;47366;51.916;4.574;2023-11-21T01:57:03;101304.16;;;8.19;100.00
61506;BME280;47366;51.916;4.574;2023-11-21T01:59:38;101321.03;;;8.24;100.00
61506;BME280;47366;51.916;4.574;2023-11-21T02:02:06;101319.19;;;8.24;100.00
61506;BME280;47366;51.916;4.574;2023-11-21T02:04:35;101307.81;;;8.18;100.00
61506;BME280;47366;51.916;4.574;2023-11-21T02:07:02;101327.22;;;8.26;100.00
61506;BME280;47366;51.916;4.574;2023-11-21T02:09:31;101322.78;;;8.25;100.00
61506;BME280;47366;51.916;4.574;2023-11-21T02:11:58;101318.31;;;8.24;100.00
61506;BME280;47366;51.916;4.574;2023-11-21T02:14:27;101327.03;;;8.30;100.00
61506;BME280;47366;51.916;4.574;2023-11-21T02:16:54;101326.97;;;8.32;100.00
61506;BME280;47366;51.916;4.574;2023-11-21T02:19:22;101321.63;;;8.30;100.00
61506;BME280;47366;51.916;4.574;2023-11-21T02:21:56;101319.94;;;8.28;100.00
61506;BME280;47366;51.916;4.574;2023-11-21T02:24:23;101328.78;;;8.32;100.00
61506;BME280;47366;51.916;4.574;2023-11-21T02:26:49;101327.91;;;8.31;100.00
61506;BME280;47366;51.916;4.574;2023-11-21T02:29:19;101323.56;;;8.27;100.00
61506;BME280;47366;51.916;4.574;2023-11-21T02:31:47;101329.69;;;8.32;100.00
61506;BME280;47366;51.916;4.574;2023-11-21T02:34:17;101318.19;;;8.27;100.00
61506;BME280;47366;51.916;4.574;2023-11-21T02:36:43;101329.69;;;8.32;100.00
61506;BME280;47366;51.916;4.574;2023-11-21T02:39:10;101326.97;;;8.32;100.00
61506;BME280;47366;51.916;4.574;2023-11-21T02:41:37;101321.69;;;8.29;100.00
61506;BME280;47366;51.916;4.574;2023-11-21T02:44:03;101319.91;;;8.29;100.00
61506;BME280;47366;51.916;4.574;2023-11-21T02:46:31;101328.78;;;8.32;100.00
61506;BME280;47366;51.916;4.574;2023-11-21T02:48:59;101331.56;;;8.30;100.00
61506;BME280;47366;51.916;4.574;2023-11-21T02:51:25;101340.47;;;8.32;100.00
61506;BME280;47366;51.916;4.574;2023-11-21T02:53:50;101331.56;;;8.30;100.00
61506;BME280;47366;51.916;4.574;2023-11-21T02:56:16;101338.63;;;8.33;100.00
61506;BME280;47366;51.916;4.574;2023-11-21T02:58:42;101335.84;;;8.34;100.00
61506;BME280;47366;51.916;4.574;2023-11-21T03:01:09;101337.69;;;8.34;100.00
61506;BME280;47366;51.916;4.574;2023-11-21T03:03:34;101335.81;;;8.36;100.00
61506;BME280;47366;51.916;4.574;2023-11-21T03:06:04;101337.63;;;8.35;100.00
61506;BME280;47366;51.916;4.574;2023-11-21T03:08:29;101336.59;;;8.38;100.00
61506;BME280;47366;51.916;4.574;2023-11-21T03:10:55;101338.44;;;8.37;100.00
61506;BME280;47366;51.916;4.574;2023-11-21T03:13:21;101343.84;;;8.37;100.00
61506;BME280;47366;51.916;4.574;2023-11-21T03:15:46;101345.66;;;8.37;100.00
61506;BME280;47366;51.916;4.574;2023-11-21T03:18:12;101341.19;;;8.36;100.00
61506;BME280;47366;51.916;4.574;2023-11-21T03:20:38;101338.44;;;8.37;100.00
61506;BME280;47366;51.916;4.574;2023-11-21T03:23:03;101353.56;;;8.41;100.00
61506;BME280;47366;51.916;4.574;2023-11-21T03:25:30;101344.47;;;8.44;100.00
61506;BME280;47366;51.916;4.574;2023-11-21T03:27:56;101355.19;;;8.45;100.00
61506;BME280;47366;51.916;4.574;2023-11-21T03:30:21;101343.66;;;8.42;100.00
61506;BME280;47366;51.916;4.574;2023-11-21T03:32:47;101357.88;;;8.45;100.00
61506;BME280;47366;51.916;4.574;2023-11-21T03:35:12;101353.34;;;8.46;100.00
61506;BME280;47366;51.916;4.574;2023-11-21T03:37:38;101355.19;;;8.45;100.00
61506;BME280;47366;51.916;4.574;2023-11-21T03:40:07;101374.75;;;8.50;100.00
61506;BME280;47366;51.916;4.574;2023-11-21T03:42:33;101382.00;;;8.50;100.00
61506;BME280;47366;51.916;4.574;2023-11-21T03:44:58;101367.75;;;8.46;100.00
61506;BME280;47366;51.916;4.574;2023-11-21T03:47:25;101380.97;;;8.53;100.00
61506;BME280;47366;51.916;4.574;2023-11-21T03:49:51;101387.31;;;8.52;100.00
61506;BME280;47366;51.916;4.574;2023-11-21T03:52:16;101381.94;;;8.52;100.00
61506;BME280;47366;51.916;4.574;2023-11-21T03:54:42;101381.16;;;8.48;100.00
61506;BME280;47366;51.916;4.574;2023-11-21T03:57:08;101384.47;;;8.55;100.00
61506;BME280;47366;51.916;4.574;2023-11-21T03:59:34;101395.94;;;8.60;100.00
61506;BME280;47366;51.916;4.574;2023-11-21T04:02:00;101388.81;;;8.59;100.00
61506;BME280;47366;51.916;4.574;2023-11-21T04:04:25;101399.63;;;8.59;100.00
61506;BME280;47366;51.916;4.574;2023-11-21T04:06:50;101385.16;;;8.60;100.00
61506;BME280;47366;51.916;4.574;2023-11-21T04:09:17;101395.03;;;8.61;100.00
61506;BME280;47366;51.916;4.574;2023-11-21T04:11:42;101402.97;;;8.64;100.00
61506;BME280;47366;51.916;4.574;2023-11-21T04:14:08;101406.28;;;8.70;100.00
61506;BME280;47366;51.916;4.574;2023-11-21T04:16:34;101407.31;;;8.68;100.00
61506;BME280;47366;51.916;4.574;2023-11-21T04:18:59;101403.78;;;8.66;100.00
61506;BME280;47366;51.916;4.574;2023-11-21T04:21:25;101409.09;;;8.67;100.00
61506;BME280;47366;51.916;4.574;2023-11-21T04:23:50;101411.81;;;8.67;100.00
61506;BME280;47366;51.916;4.574;2023-11-21T04:26:16;101411.81;;;8.67;100.00
61506;BME280;47366;51.916;4.574;2023-11-21T04:28:41;101421.88;;;8.64;100.00
61506;BME280;47366;51.916;4.574;2023-11-21T04:31:07;101420.06;;;8.64;100.00
61506;BME280;47366;51.916;4.574;2023-11-21T04:33:32;101416.53;;;8.62;100.00
61506;BME280;47366;51.916;4.574;2023-11-21T04:35:58;101420.94;;;8.65;100.00
61506;BME280;47366;51.916;4.574;2023-11-21T04:38:23;101421.81;;;8.65;100.00
61506;BME280;47366;51.916;4.574;2023-11-21T04:40:48;101430.81;;;8.66;100.00
61506;BME280;47366;51.916;4.574;2023-11-21T04:43:14;101426.31;;;8.65;100.00
61506;BME280;47366;51.916;4.574;2023-11-21T04:45:39;101436.94;;;8.69;100.00
61506;BME280;47366;51.916;4.574;2023-11-21T04:48:06;101439.56;;;8.71;100.00
61506;BME280;47366;51.916;4.574;2023-11-21T04:50:31;101440.63;;;8.67;100.00
61506;BME280;47366;51.916;4.574;2023-11-21T04:52:57;101442.28;;;8.71;100.00
61506;BME280;47366;51.916;4.574;2023-11-21T04:55:22;101438.81;;;8.67;100.00
61506;BME280;47366;51.916;4.574;2023-11-21T04:57:47;101445.13;;;8.68;100.00
61506;BME280;47366;51.916;4.574;2023-11-21T05:00:13;101446.00;;;8.68;100.00
61506;BME280;47366;51.916;4.574;2023-11-21T05:02:40;101454.91;;;8.70;100.00
61506;BME280;47366;51.916;4.574;2023-11-21T05:05:07;101464.59;;;8.75;100.00
61506;BME280;47366;51.916;4.574;2023-11-21T05:07:33;101469.91;;;8.78;100.00
61506;BME280;47366;51.916;4.574;2023-11-21T05:10:00;101468.88;;;8.80;100.00
61506;BME280;47366;51.916;4.574;2023-11-21T05:12:31;101464.34;;;8.81;100.00
61506;BME280;47366;51.916;4.574;2023-11-21T05:15:00;101477.78;;;8.82;100.00
61506;BME280;47366;51.916;4.574;2023-11-21T05:17:26;101468.94;;;8.79;100.00
61506;BME280;47366;51.916;4.574;2023-11-21T05:19:51;101477.78;;;8.82;100.00
61506;BME280;47366;51.916;4.574;2023-11-21T05:22:17;101484.78;;;8.86;100.00
61506;BME280;47366;51.916;4.574;2023-11-21T05:24:42;101485.91;;;8.82;100.00
61506;BME280;47366;51.916;4.574;2023-11-21T05:27:07;101493.88;;;8.85;100.00
61506;BME280;47366;51.916;4.574;2023-11-21T05:29:34;101488.47;;;8.85;100.00
61506;BME280;47366;51.916;4.574;2023-11-21T05:32:00;101489.47;;;8.83;100.00
61506;BME280;47366;51.916;4.574;2023-11-21T05:34:25;101493.00;;;8.85;100.00
61506;BME280;47366;51.916;4.574;2023-11-21T05:36:51;101492.91;;;8.86;100.00
61506;BME280;47366;51.916;4.574;2023-11-21T05:39:16;101499.13;;;8.88;100.00
61506;BME280;47366;51.916;4.574;2023-11-21T05:41:45;101494.69;;;8.87;100.00
61506;BME280;47366;51.916;4.574;2023-11-21T05:44:11;101484.13;;;8.81;100.00
61506;BME280;47366;51.916;4.574;2023-11-21T05:46:39;101501.81;;;8.88;100.00
61506;BME280;47366;51.916;4.574;2023-11-21T05:49:05;101502.78;;;8.87;100.00
61506;BME280;47366;51.916;4.574;2023-11-21T05:51:31;101511.81;;;8.86;100.00
61506;BME280;47366;51.916;4.574;2023-11-21T05:53:56;101526.22;;;8.87;100.00
61506;BME280;47366;51.916;4.574;2023-11-21T05:56:21;101519.03;;;8.86;100.00
61506;BME280;47366;51.916;4.574;2023-11-21T05:58:47;101527.34;;;8.81;100.00
61506;BME280;47366;51.916;4.574;2023-11-21T06:01:12;101532.56;;;8.86;100.00
61506;BME280;47366;51.916;4.574;2023-11-21T06:03:38;101544.22;;;8.86;100.00
61506;BME280;47366;51.916;4.574;2023-11-21T06:06:04;101534.59;;;8.81;100.00
61506;BME280;47366;51.916;4.574;2023-11-21T06:08:30;101536.41;;;8.80;100.00
61506;BME280;47366;51.916;4.574;2023-11-21T06:10:55;101548.03;;;8.82;100.00
61506;BME280;47366;51.916;4.574;2023-11-21T06:13:20;101554.16;;;8.86;100.00
61506;BME280;47366;51.916;4.574;2023-11-21T06:15:49;101546.34;;;8.80;100.00
61506;BME280;47366;51.916;4.574;2023-11-21T06:18:15;101564.25;;;8.82;100.00
61506;BME280;47366;51.916;4.574;2023-11-21T06:20:40;101560.72;;;8.80;100.00
61506;BME280;47366;51.916;4.574;2023-11-21T06:23:05;101563.28;;;8.83;100.00
61506;BME280;47366;51.916;4.574;2023-11-21T06:25:31;101555.31;;;8.80;100.00
61506;BME280;47366;51.916;4.574;2023-11-21T06:28:01;101561.53;;;8.82;100.00
61506;BME280;47366;51.916;4.574;2023-11-21T06:30:26;101571.19;;;8.88;100.00
61506;BME280;47366;51.916;4.574;2023-11-21T06:32:51;101572.88;;;8.90;100.00
61506;BME280;47366;51.916;4.574;2023-11-21T06:35:17;101568.53;;;8.86;100.00
61506;BME280;47366;51.916;4.574;2023-11-21T06:37:43;101584.44;;;8.94;100.00
61506;BME280;47366;51.916;4.574;2023-11-21T06:40:13;101578.09;;;8.95;100.00
61506;BME280;47366;51.916;4.574;2023-11-21T06:42:40;101577.41;;;8.90;100.00
61506;BME280;47366;51.916;4.574;2023-11-21T06:45:06;101575.59;;;8.90;100.00
61506;BME280;47366;51.916;4.574;2023-11-21T06:47:32;101574.44;;;8.96;100.00
61506;BME280;47366;51.916;4.574;2023-11-21T06:49:58;101584.25;;;8.99;100.00
61506;BME280;47366;51.916;4.574;2023-11-21T06:52:24;101589.97;;;8.91;100.00
61506;BME280;47366;51.916;4.574;2023-11-21T06:54:49;101598.25;;;8.86;100.00
61506;BME280;47366;51.916;4.574;2023-11-21T06:57:17;101600.03;;;8.87;100.00
61506;BME280;47366;51.916;4.574;2023-11-21T06:59:43;101611.72;;;8.88;100.00
61506;BME280;47366;51.916;4.574;2023-11-21T07:02:08;101614.47;;;8.86;100.00
61506;BME280;47366;51.916;4.574;2023-11-21T07:04:34;101611.22;;;8.78;100.00
61506;BME280;47366;51.916;4.574;2023-11-21T07:07:01;101623.59;;;8.84;100.00
61506;BME280;47366;51.916;4.574;2023-11-21T07:09:27;101616.63;;;8.78;100.00
61506;BME280;47366;51.916;4.574;2023-11-21T07:11:52;101627.28;;;8.81;100.00
61506;BME280;47366;51.916;4.574;2023-11-21T07:14:18;101631.09;;;8.77;100.00
61506;BME280;47366;51.916;4.574;2023-11-21T07:16:45;101640.94;;;8.78;100.00
61506;BME280;47366;51.916;4.574;2023-11-21T07:19:11;101632.97;;;8.75;100.00
61506;BME280;47366;51.916;4.574;2023-11-21T07:21:38;101638.09;;;8.81;100.00
61506;BME280;47366;51.916;4.574;2023-11-21T07:24:05;101640.81;;;8.81;100.00
61506;BME280;47366;51.916;4.574;2023-11-21T07:26:31;101651.28;;;8.89;100.00
61506;BME280;47366;51.916;4.574;2023-11-21T07:28:58;101663.72;;;8.93;100.00
61506;BME280;47366;51.916;4.574;2023-11-21T07:31:24;101667.25;;;8.95;100.00
61506;BME280;47366;51.916;4.574;2023-11-21T07:33:49;101670.78;;;8.97;100.00
61506;BME280;47366;51.916;4.574;2023-11-21T07:36:16;101670.72;;;8.99;100.00
61506;BME280;47366;51.916;4.574;2023-11-21T07:38:43;101676.03;;;9.00;100.00
61506;BME280;47366;51.916;4.574;2023-11-21T07:41:08;101674.31;;;8.99;100.00
61506;BME280;47366;51.916;4.574;2023-11-21T07:43:35;101681.44;;;9.00;100.00
61506;BME280;47366;51.916;4.574;2023-11-21T07:46:04;101698.28;;;9.07;100.00
61506;BME280;47366;51.916;4.574;2023-11-21T07:48:31;101680.34;;;9.06;100.00
61506;BME280;47366;51.916;4.574;2023-11-21T07:50:57;101694.44;;;9.12;100.00
61506;BME280;47366;51.916;4.574;2023-11-21T07:53:26;101691.69;;;9.14;100.00
61506;BME280;47366;51.916;4.574;2023-11-21T07:55:54;101696.91;;;9.19;100.00
61506;BME280;47366;51.916;4.574;2023-11-21T07:58:19;101713.06;;;9.20;100.00
61506;BME280;47366;51.916;4.574;2023-11-21T08:00:45;101709.34;;;9.23;100.00
61506;BME280;47366;51.916;4.574;2023-11-21T08:03:10;101720.91;;;9.26;100.00
61506;BME280;47366;51.916;4.574;2023-11-21T08:05:36;101716.44;;;9.25;100.00
61506;BME280;47366;51.916;4.574;2023-11-21T08:08:02;101723.41;;;9.31;100.00
61506;BME280;47366;51.916;4.574;2023-11-21T08:10:27;101714.63;;;9.26;100.00
61506;BME280;47366;51.916;4.574;2023-11-21T08:12:52;101733.31;;;9.32;100.00
61506;BME280;47366;51.916;4.574;2023-11-21T08:15:19;101720.66;;;9.32;100.00
61506;BME280;47366;51.916;4.574;2023-11-21T08:17:45;101732.09;;;9.39;100.00
61506;BME280;47366;51.916;4.574;2023-11-21T08:20:11;101742.69;;;9.44;100.00
61506;BME280;47366;51.916;4.574;2023-11-21T08:22:37;101743.66;;;9.43;100.00
61506;BME280;47366;51.916;4.574;2023-11-21T08:25:02;101739.25;;;9.40;100.00
61506;BME280;47366;51.916;4.574;2023-11-21T08:27:31;101748.91;;;9.46;100.00
61506;BME280;47366;51.916;4.574;2023-11-21T08:29:56;101746.22;;;9.46;100.00
61506;BME280;47366;51.916;4.574;2023-11-21T08:32:22;101744.41;;;9.46;100.00
61506;BME280;47366;51.916;4.574;2023-11-21T08:34:47;101747.78;;;9.51;100.00
61506;BME280;47366;51.916;4.574;2023-11-21T08:37:16;101747.72;;;9.53;100.00
61506;BME280;47366;51.916;4.574;2023-11-21T08:39:41;101750.31;;;9.56;100.00
61506;BME280;47366;51.916;4.574;2023-11-21T08:42:07;101750.50;;;9.51;100.00
61506;BME280;47366;51.916;4.574;2023-11-21T08:44:33;101756.41;;;9.61;100.00
61506;BME280;47366;51.916;4.574;2023-11-21T08:46:58;101749.97;;;9.64;100.00
61506;BME280;47366;51.916;4.574;2023-11-21T08:49:24;101748.00;;;9.67;100.00
61506;BME280;47366;51.916;4.574;2023-11-21T08:51:51;101747.94;;;9.69;100.00
61506;BME280;47366;51.916;4.574;2023-11-21T08:54:16;101757.59;;;9.74;100.00
61506;BME280;47366;51.916;4.574;2023-11-21T08:56:43;101758.38;;;9.78;100.00
61506;BME280;47366;51.916;4.574;2023-11-21T08:59:08;101752.00;;;9.79;100.00
61506;BME280;47366;51.916;4.574;2023-11-21T09:01:34;101752.81;;;9.81;100.00
61506;BME280;47366;51.916;4.574;2023-11-21T09:03:59;101765.06;;;9.90;100.00
61506;BME280;47366;51.916;4.574;2023-11-21T09:06:25;101770.34;;;9.93;100.00
61506;BME280;47366;51.916;4.574;2023-11-21T09:08:50;101769.94;;;10.02;100.00
61506;BME280;47366;51.916;4.574;2023-11-21T09:11:17;101773.47;;;10.04;100.00
61506;BME280;47366;51.916;4.574;2023-11-21T09:13:42;101785.81;;;10.10;100.00
61506;BME280;47366;51.916;4.574;2023-11-21T09:16:08;101769.66;;;10.08;100.00
61506;BME280;47366;51.916;4.574;2023-11-21T09:18:33;101795.63;;;10.12;100.00
61506;BME280;47366;51.916;4.574;2023-11-21T09:20:59;101785.81;;;10.10;100.00
61506;BME280;47366;51.916;4.574;2023-11-21T09:23:24;101789.41;;;10.10;100.00
61506;BME280;47366;51.916;4.574;2023-11-21T09:25:50;101786.78;;;10.09;100.00
61506;BME280;47366;51.916;4.574;2023-11-21T09:28:17;101804.88;;;10.08;100.00
61506;BME280;47366;51.916;4.574;2023-11-21T09:30:43;101800.38;;;10.07;100.00
61506;BME280;47366;51.916;4.574;2023-11-21T09:33:09;101804.16;;;10.03;100.00
61506;BME280;47366;51.916;4.574;2023-11-21T09:35:38;101812.28;;;10.03;100.00
61506;BME280;47366;51.916;4.574;2023-11-21T09:38:04;101806.09;;;10.01;100.00
61506;BME280;47366;51.916;4.574;2023-11-21T09:40:36;101836.59;;;10.05;100.00
61506;BME280;47366;51.916;4.574;2023-11-21T09:43:06;101837.34;;;10.08;100.00
61506;BME280;47366;51.916;4.574;2023-11-21T09:45:35;101822.22;;;10.03;100.00
61506;BME280;47366;51.916;4.574;2023-11-21T09:48:01;101845.38;;;10.10;100.00
61506;BME280;47366;51.916;4.574;2023-11-21T09:50:27;101847.22;;;10.09;100.00
61506;BME280;47366;51.916;4.574;2023-11-21T09:55:43;101860.63;;;10.12;100.00
61506;BME280;47366;51.916;4.574;2023-11-21T09:58:09;101863.31;;;10.12;100.00
61506;BME280;47366;51.916;4.574;2023-11-21T10:00:40;101860.75;;;10.09;100.00
61506;BME280;47366;51.916;4.574;2023-11-21T10:03:05;101860.63;;;10.12;100.00
61506;BME280;47366;51.916;4.574;2023-11-21T10:05:30;101868.69;;;10.14;100.00
61506;BME280;47366;51.916;4.574;2023-11-21T10:07:59;101875.94;;;10.13;100.00
61506;BME280;47366;51.916;4.574;2023-11-21T10:10:25;101883.84;;;10.18;100.00
61506;BME280;47366;51.916;4.574;2023-11-21T10:12:55;101883.84;;;10.18;100.00
61506;BME280;47366;51.916;4.574;2023-11-21T10:15:22;101891.97;;;10.18;100.00
61506;BME280;47366;51.916;4.574;2023-11-21T10:17:49;101904.59;;;10.17;100.00
61506;BME280;47366;51.916;4.574;2023-11-21T10:20:15;101896.75;;;10.11;100.00
61506;BME280;47366;51.916;4.574;2023-11-21T10:22:41;101902.09;;;10.13;100.00
61506;BME280;47366;51.916;4.574;2023-11-21T10:25:08;101902.19;;;10.11;100.00
61506;BME280;47366;51.916;4.574;2023-11-21T10:27:35;101920.13;;;10.14;100.00
61506;BME280;47366;51.916;4.574;2023-11-21T10:30:02;101929.97;;;10.15;100.00
61506;BME280;47366;51.916;4.574;2023-11-21T10:32:29;101924.09;;;10.05;100.00
61506;BME280;47366;51.916;4.574;2023-11-21T10:34:57;101930.47;;;10.04;100.00
61506;BME280;47366;51.916;4.574;2023-11-21T10:37:25;101921.72;;;9.97;100.00
61506;BME280;47366;51.916;4.574;2023-11-21T10:39:57;101932.41;;;10.00;100.00
61506;BME280;47366;51.916;4.574;2023-11-21T10:42:23;101942.34;;;10.00;100.00
61506;BME280;47366;51.916;4.574;2023-11-21T10:44:49;101943.16;;;10.02;100.00
61506;BME280;47366;51.916;4.574;2023-11-21T10:47:15;101945.19;;;9.97;100.00
61506;BME280;47366;51.916;4.574;2023-11-21T10:49:41;101951.47;;;9.97;100.00
61506;BME280;47366;51.916;4.574;2023-11-21T10:52:07;101941.72;;;9.93;100.00
61506;BME280;47366;51.916;4.574;2023-11-21T10:54:33;101948.03;;;9.94;100.00
61506;BME280;47366;51.916;4.574;2023-11-21T10:57:01;101968.53;;;9.99;100.00
61506;BME280;47366;51.916;4.574;2023-11-21T10:59:30;101967.59;;;10.00;100.00
61506;BME280;47366;51.916;4.574;2023-11-21T11:01:57;101966.72;;;10.00;100.00
61506;BME280;47366;51.916;4.574;2023-11-21T11:04:25;101968.59;;;9.98;100.00
61506;BME280;47366;51.916;4.574;2023-11-21T11:06:57;101970.25;;;10.02;100.00
61506;BME280;47366;51.916;4.574;2023-11-21T11:09:27;101964.81;;;10.02;100.00
61506;BME280;47366;51.916;4.574;2023-11-21T11:11:52;101969.41;;;10.00;100.00
61506;BME280;47366;51.916;4.574;2023-11-21T11:14:19;101969.22;;;10.05;100.00
61506;BME280;47366;51.916;4.574;2023-11-21T11:16:45;101966.56;;;10.03;100.00
61506;BME280;47366;51.916;4.574;2023-11-21T11:19:11;101965.00;;;9.97;100.00
61506;BME280;47366;51.916;4.574;2023-11-21T11:24:27;101959.34;;;10.04;100.00
61506;BME280;47366;51.916;4.574;2023-11-21T11:29:41;101970.78;;;10.10;100.00
61506;BME280;47366;51.916;4.574;2023-11-21T11:37:55;101955.50;;;10.09;100.00
61506;BME280;47366;51.916;4.574;2023-11-21T11:40:22;101979.81;;;10.11;100.00
61506;BME280;47366;51.916;4.574;2023-11-21T11:43:01;101974.25;;;10.14;100.00
61506;BME280;47366;51.916;4.574;2023-11-21T11:45:34;101976.97;;;10.14;100.00
61506;BME280;47366;51.916;4.574;2023-11-21T11:48:01;101974.41;;;10.11;100.00
61506;BME280;47366;51.916;4.574;2023-11-21T11:50:27;101986.94;;;10.13;100.00
61506;BME280;47366;51.916;4.574;2023-11-21T11:52:53;101974.78;;;10.02;100.00
61506;BME280;47366;51.916;4.574;2023-11-21T11:55:21;101983.72;;;10.04;100.00
61506;BME280;47366;51.916;4.574;2023-11-21T11:57:51;101989.88;;;10.07;100.00
61506;BME280;47366;51.916;4.574;2023-11-21T12:02:51;102003.47;;;10.06;100.00
61506;BME280;47366;51.916;4.574;2023-11-21T12:05:18;101996.34;;;10.03;100.00
61506;BME280;47366;51.916;4.574;2023-11-21T12:07:45;102003.34;;;10.09;100.00
61506;BME280;47366;51.916;4.574;2023-11-21T12:10:16;102014.09;;;10.10;100.00
61506;BME280;47366;51.916;4.574;2023-11-21T12:12:50;102021.34;;;10.10;100.00
61506;BME280;47366;51.916;4.574;2023-11-21T12:15:17;102024.06;;;10.10;100.00
61506;BME280;47366;51.916;4.574;2023-11-21T12:17:45;102020.44;;;10.11;100.00
61506;BME280;47366;51.916;4.574;2023-11-21T12:20:15;102028.47;;;10.12;100.00
61506;BME280;47366;51.916;4.574;2023-11-21T12:22:49;102016.19;;;10.04;100.00
61506;BME280;47366;51.916;4.574;2023-11-21T12:25:28;102027.78;;;10.07;100.00
61506;BME280;47366;51.916;4.574;2023-11-21T12:27:58;102028.72;;;10.06;100.00
61506;BME280;47366;51.916;4.574;2023-11-21T12:30:29;102033.31;;;10.04;100.00
61506;BME280;47366;51.916;4.574;2023-11-21T12:32:56;102022.50;;;10.04;100.00
61506;BME280;47366;51.916;4.574;2023-11-21T12:35:24;102019.97;;;9.99;100.00
61506;BME280;47366;51.916;4.574;2023-11-21T12:37:51;102047.97;;;9.98;100.00
61506;BME280;47366;51.916;4.574;2023-11-21T12:40:18;102047.16;;;9.96;100.00
61506;BME280;47366;51.916;4.574;2023-11-21T12:42:48;102044.47;;;9.96;100.00
61506;BME280;47366;51.916;4.574;2023-11-21T12:47:46;102044.50;;;9.95;100.00
61506;BME280;47366;51.916;4.574;2023-11-21T12:50:13;102058.88;;;9.97;100.00
61506;BME280;47366;51.916;4.574;2023-11-21T12:52:44;102036.56;;;9.90;100.00
61506;BME280;47366;51.916;4.574;2023-11-21T12:55:17;102054.28;;;9.99;100.00
61506;BME280;47366;51.916;4.574;2023-11-21T12:57:48;102069.44;;;10.03;100.00
61506;BME280;47366;51.916;4.574;2023-11-21T13:00:17;102059.69;;;9.99;100.00
61506;BME280;47366;51.916;4.574;2023-11-21T13:02:57;102064.28;;;9.97;100.00